Bom Jesus, Brazil
Current Conditions -  °F | °C
As of 5:00 AM on Monday 22 Dec 2014 (Local Time) from SBUL Reporting Station
Light Rain Light Rain  
Wind Chill: 68°   Ceiling: 300
Heat Index: 68°   Visibility: 4mi
Dew Point: 66°   Wind: 8mph
Humidity: 94%   Direction: 330°NNW
Pressure: 30.03"   Gusts: NA
Location:  18.21°S, 49.74°W
Report Text: SBUL 220700Z 33007KT 6000 -RA BKN003 SCT030 20/19 Q1017
Loading
Personal Weather Stations






























Interactive Weather Map New forecast layout! Learn more

10-Day Weather Forecast

Advertisements
Track Severe Weather on mobile